Time;durP1;ratioP1;P1;durP2;ratioP2;P2;SDS_P1;SDS_P2;PMS_P1;PMS_P2;Temp;Humidity;BMP_temperature;BMP_pressure;BME280_temperature;BME280_humidity;BME280_pressure;Samples;Min_cycle;Max_cycle;Signal;HPM_P1;HPM_P2
2021/08/08 00:03:39;;;;;;;9.80;2.45;;;19.30;99.90;;;;;;14920069;22;20464;-78
2021/08/08 00:09:27;;;;;;;8.38;2.80;;;19.30;99.90;;;;;;14918971;22;20031;-79
2021/08/08 00:15:14;;;;;;;14.30;2.70;;;19.40;99.90;;;;;;14921702;22;20024;-78
2021/08/08 00:21:01;;;;;;;7.95;2.30;;;19.40;99.90;;;;;;14921085;22;20031;-78
2021/08/08 00:26:49;;;;;;;13.27;2.38;;;19.40;99.90;;;;;;14920329;22;20364;-78
2021/08/08 06:41:23;;;;;;;17.65;4.88;;;16.90;99.90;;;;;;12042101;28;20386;-55
2021/08/08 06:47:09;;;;;;;21.15;4.47;;;17.30;99.90;;;;;;12014422;28;20048;-53
2021/08/08 06:52:57;;;;;;;21.00;4.35;;;18.00;99.90;;;;;;12012168;28;20047;-55
2021/08/08 06:58:45;;;;;;;21.33;4.55;;;18.30;99.90;;;;;;12029437;28;20049;-56
2021/08/08 07:04:32;;;;;;;16.98;4.13;;;18.70;99.90;;;;;;12034958;28;20397;-51
2021/08/08 07:10:19;;;;;;;20.15;4.07;;;18.70;99.90;;;;;;12034676;28;20049;-57
2021/08/08 07:16:08;;;;;;;18.67;3.92;;;18.90;99.90;;;;;;12034882;28;20492;-55
2021/08/08 07:21:55;;;;;;;22.25;4.82;;;19.20;99.90;;;;;;12034163;28;20369;-57
2021/08/08 07:27:42;;;;;;;25.98;4.15;;;19.20;99.90;;;;;;12033914;28;20040;-53
2021/08/08 07:33:30;;;;;;;22.67;4.45;;;19.30;99.90;;;;;;12033727;28;20045;-56
2021/08/08 07:39:17;;;;;;;14.70;4.28;;;19.20;99.90;;;;;;12032720;28;20049;-55
2021/08/08 07:45:04;;;;;;;22.70;4.35;;;19.20;99.90;;;;;;12032719;28;20045;-54
2021/08/08 07:50:52;;;;;;;22.17;4.32;;;19.10;99.90;;;;;;12001109;28;20045;-57
2021/08/08 07:56:39;;;;;;;21.58;4.43;;;18.90;99.90;;;;;;11969484;28;20045;-55
2021/08/08 08:02:26;;;;;;;16.58;4.57;;;19.10;99.90;;;;;;11974246;28;20048;-56
2021/08/08 08:08:14;;;;;;;21.48;4.57;;;19.30;99.90;;;;;;11968199;28;20049;-54
2021/08/08 08:14:01;;;;;;;18.52;4.13;;;19.30;99.90;;;;;;11971275;28;20523;-55
2021/08/08 08:19:48;;;;;;;14.95;3.75;;;19.50;99.90;;;;;;11969908;28;20061;-57
2021/08/08 08:25:37;;;;;;;18.35;3.70;;;19.20;99.90;;;;;;11969084;28;20049;-57
2021/08/08 08:31:24;;;;;;;17.52;4.50;;;19.20;99.90;;;;;;11968697;28;20071;-54
2021/08/08 08:37:10;;;;;;;21.65;4.43;;;19.20;99.90;;;;;;11973228;28;20338;-56
2021/08/08 08:43:01;;;;;;;14.48;3.72;;;19.30;99.90;;;;;;11968543;28;20045;-54
2021/08/08 08:48:50;;;;;;;12.07;3.53;;;19.50;99.90;;;;;;11970174;28;20041;-57
2021/08/08 08:54:37;;;;;;;12.10;3.90;;;19.60;99.90;;;;;;11966285;28;20076;-56
2021/08/08 09:00:26;;;;;;;19.30;3.63;;;19.60;99.90;;;;;;11965040;28;20520;-53
2021/08/08 09:06:14;;;;;;;20.65;3.88;;;19.80;99.90;;;;;;11967912;28;20037;-55
2021/08/08 09:12:01;;;;;;;13.90;3.60;;;19.40;99.90;;;;;;11968455;28;20664;-57
2021/08/08 09:17:49;;;;;;;14.65;3.63;;;19.60;99.90;;;;;;11964917;28;20056;-55
2021/08/08 09:23:36;;;;;;;17.50;3.67;;;19.60;99.90;;;;;;11971070;28;20433;-55
2021/08/08 09:29:23;;;;;;;14.10;3.13;;;19.70;99.90;;;;;;11965051;28;20048;-57
2021/08/08 09:35:19;;;;;;;14.32;3.55;;;19.50;99.90;;;;;;11961503;28;20058;-54
2021/08/08 09:41:06;;;;;;;14.95;3.70;;;19.80;99.90;;;;;;11970428;28;20072;-56
2021/08/08 09:46:57;;;;;;;11.40;3.15;;;19.80;99.90;;;;;;11966827;28;20437;-57
2021/08/08 09:52:53;;;;;;;13.95;3.53;;;19.70;99.90;;;;;;11964778;28;20053;-55
2021/08/08 09:58:40;;;;;;;10.95;2.90;;;20.10;99.60;;;;;;11967634;28;20057;-54
2021/08/08 10:04:29;;;;;;;11.07;3.63;;;20.30;98.50;;;;;;11965668;28;20049;-56
2021/08/08 10:10:18;;;;;;;14.05;3.58;;;20.40;97.50;;;;;;11968169;28;20440;-56
2021/08/08 10:16:09;;;;;;;8.73;2.78;;;20.40;97.60;;;;;;11965395;28;20059;-55
2021/08/08 10:28:40;;;;;;;12.45;3.33;;;20.40;96.10;;;;;;11994751;28;20478;-55
2021/08/08 10:34:31;;;;;;;12.88;3.30;;;20.40;96.40;;;;;;11994522;28;20042;-52
2021/08/08 10:40:31;;;;;;;17.13;4.40;;;20.50;95.90;;;;;;11993769;28;20044;-55
2021/08/08 10:46:19;;;;;;;14.05;3.42;;;20.50;97.10;;;;;;11994230;28;20053;-56
2021/08/08 10:52:08;;;;;;;14.32;3.08;;;20.60;96.60;;;;;;11980099;28;20072;-56
2021/08/08 10:57:55;;;;;;;12.27;2.95;;;20.90;95.00;;;;;;11962633;28;20045;-56
2021/08/08 11:03:52;;;;;;;12.57;3.38;;;21.30;95.30;;;;;;11961355;28;20052;-57
2021/08/08 11:09:40;;;;;;;14.10;3.28;;;21.40;94.20;;;;;;11992699;28;20045;-56
2021/08/08 11:15:34;;;;;;;13.05;3.15;;;21.30;94.20;;;;;;11993347;28;20049;-56
2021/08/08 11:21:24;;;;;;;12.20;3.90;;;21.30;94.50;;;;;;11993547;28;20041;-54
2021/08/08 11:27:11;;;;;;;7.97;2.85;;;21.30;94.40;;;;;;12001018;28;20543;-52
2021/08/08 11:32:58;;;;;;;11.90;3.35;;;21.50;93.50;;;;;;12002117;28;20049;-55
2021/08/08 11:38:55;;;;;;;11.63;3.22;;;21.50;93.90;;;;;;12001238;28;20068;-54
2021/08/08 11:44:43;;;;;;;12.35;3.40;;;21.40;93.70;;;;;;12001276;28;20051;-56
2021/08/08 11:50:30;;;;;;;13.20;2.90;;;21.00;93.10;;;;;;11993755;28;20051;-55
2021/08/08 11:56:22;;;;;;;16.08;2.75;;;21.10;93.70;;;;;;11967391;28;20049;-57
2021/08/08 12:02:09;;;;;;;12.73;3.50;;;20.90;94.10;;;;;;11971310;28;20049;-55
2021/08/08 12:07:57;;;;;;;13.65;3.20;;;21.00;94.70;;;;;;11965082;28;20060;-53
2021/08/08 12:13:45;;;;;;;10.38;2.60;;;21.20;94.40;;;;;;11969382;28;20040;-55
2021/08/08 12:19:33;;;;;;;12.02;2.38;;;21.10;96.00;;;;;;11972082;28;20045;-56
2021/08/08 12:25:21;;;;;;;9.65;2.60;;;21.60;94.30;;;;;;11964210;28;20161;-56
2021/08/08 12:37:16;;;;;;;6.55;2.25;;;21.30;96.30;;;;;;11971325;28;20049;-55
2021/08/08 12:43:03;;;;;;;8.68;2.15;;;21.80;95.70;;;;;;11965387;28;20045;-56
2021/08/08 12:48:59;;;;;;;5.30;1.88;;;21.90;94.00;;;;;;11998958;28;20061;-56
2021/08/08 12:54:46;;;;;;;6.50;2.50;;;22.10;94.60;;;;;;11968742;28;20049;-57
2021/08/08 13:00:33;;;;;;;4.82;2.05;;;22.40;94.00;;;;;;11962211;28;20092;-56
2021/08/08 13:06:23;;;;;;;7.57;2.38;;;22.10;92.70;;;;;;11968248;28;20056;-56
2021/08/08 13:12:10;;;;;;;6.07;1.92;;;21.70;93.70;;;;;;11966172;28;20045;-56
2021/08/08 13:17:57;;;;;;;4.63;2.17;;;20.70;95.40;;;;;;11964091;28;20509;-54
2021/08/08 13:23:45;;;;;;;6.75;2.13;;;20.80;96.20;;;;;;11968789;28;20050;-51
2021/08/08 13:29:32;;;;;;;7.13;2.22;;;21.10;95.80;;;;;;11967844;28;20064;-55
2021/08/08 13:35:19;;;;;;;5.30;2.00;;;21.80;96.00;;;;;;11961851;28;20048;-55
2021/08/08 13:41:07;;;;;;;7.88;1.90;;;22.10;92.80;;;;;;11969848;28;20372;-52
2021/08/08 13:46:54;;;;;;;7.57;1.73;;;22.30;90.50;;;;;;11964666;28;20048;-56
2021/08/08 13:52:42;;;;;;;4.93;1.92;;;22.70;90.80;;;;;;11961072;28;20052;-55
2021/08/08 13:58:30;;;;;;;4.90;1.63;;;23.30;90.10;;;;;;11966660;28;20184;-53
2021/08/08 14:04:17;;;;;;;7.03;1.83;;;23.40;89.50;;;;;;11966199;28;20053;-57
2021/08/08 14:10:07;;;;;;;4.15;1.80;;;23.90;85.10;;;;;;11964389;28;20041;-55
2021/08/08 14:15:55;;;;;;;6.18;1.92;;;23.70;80.70;;;;;;11969817;28;20045;-56
2021/08/08 14:21:42;;;;;;;4.78;1.65;;;23.50;81.50;;;;;;11962758;28;20510;-57
2021/08/08 14:27:29;;;;;;;3.95;1.52;;;23.60;81.10;;;;;;11963584;28;20131;-58
2021/08/08 14:33:17;;;;;;;3.70;1.50;;;23.60;79.40;;;;;;11963714;28;20697;-57
2021/08/08 14:39:04;;;;;;;1.42;0.95;;;23.90;76.10;;;;;;11963759;28;20049;-58
2021/08/08 14:44:51;;;;;;;4.32;1.58;;;23.80;73.40;;;;;;11962156;28;20041;-56
2021/08/08 14:50:39;;;;;;;4.43;1.65;;;23.50;73.90;;;;;;11965885;28;20140;-58
2021/08/08 14:56:26;;;;;;;5.18;1.70;;;23.60;75.10;;;;;;11962823;28;20056;-57
2021/08/08 15:02:13;;;;;;;5.40;1.58;;;24.00;74.60;;;;;;11970512;28;20038;-57
2021/08/08 15:08:01;;;;;;;6.72;1.60;;;23.90;71.70;;;;;;11974312;28;20076;-57
2021/08/08 15:13:48;;;;;;;3.35;1.30;;;23.70;73.60;;;;;;11971342;28;20422;-59
2021/08/08 15:19:35;;;;;;;5.00;1.60;;;24.00;72.70;;;;;;11969869;28;20048;-56
2021/08/08 15:25:27;;;;;;;3.85;1.25;;;24.40;74.20;;;;;;11973310;28;20045;-57
2021/08/08 15:31:13;;;;;;;3.92;1.50;;;24.70;70.30;;;;;;11970248;28;20049;-57
2021/08/08 15:37:00;;;;;;;3.70;1.30;;;24.80;70.70;;;;;;11971611;28;20448;-57
2021/08/08 15:42:49;;;;;;;6.30;1.50;;;24.90;68.70;;;;;;11973452;28;20057;-55
2021/08/08 15:48:35;;;;;;;4.45;1.50;;;25.00;68.60;;;;;;11969709;28;20053;-55
2021/08/08 15:54:22;;;;;;;5.90;1.52;;;24.60;69.10;;;;;;11968513;28;20056;-56
2021/08/08 16:00:12;;;;;;;3.92;1.55;;;25.10;70.00;;;;;;11970189;28;20444;-55
2021/08/08 16:05:59;;;;;;;4.10;1.35;;;25.50;66.50;;;;;;11968792;28;20050;-56
2021/08/08 16:11:46;;;;;;;4.70;1.70;;;26.20;65.90;;;;;;11972398;28;20052;-56
2021/08/08 16:17:34;;;;;;;2.95;1.42;;;27.10;64.60;;;;;;11972767;28;20061;-57
2021/08/08 16:23:21;;;;;;;5.78;1.65;;;26.50;65.00;;;;;;11963424;28;20433;-56
2021/08/08 16:29:08;;;;;;;6.13;1.70;;;27.30;64.50;;;;;;11975364;28;20076;-56
2021/08/08 16:34:57;;;;;;;6.07;1.58;;;28.20;61.50;;;;;;11972599;28;20045;-56
2021/08/08 16:40:44;;;;;;;7.10;1.75;;;27.60;62.90;;;;;;11966348;28;20057;-56
2021/08/08 16:46:31;;;;;;;3.20;1.20;;;27.30;63.70;;;;;;11969275;28;20045;-55
2021/08/08 16:52:20;;;;;;;4.88;1.52;;;25.80;66.40;;;;;;11970859;28;20049;-54
2021/08/08 16:58:09;;;;;;;9.27;2.17;;;24.90;68.60;;;;;;11962903;28;20094;-57
2021/08/08 17:03:56;;;;;;;3.40;1.15;;;24.50;70.40;;;;;;11967612;28;20509;-54
2021/08/08 17:09:44;;;;;;;5.15;1.45;;;24.20;71.40;;;;;;11964004;28;20061;-53
2021/08/08 17:15:31;;;;;;;4.65;1.35;;;23.90;72.00;;;;;;11967921;28;20049;-56
2021/08/08 17:21:18;;;;;;;3.42;1.40;;;24.00;72.00;;;;;;11965361;28;20051;-55
2021/08/08 17:27:06;;;;;;;6.80;1.50;;;25.20;70.00;;;;;;11975112;28;20136;-54
2021/08/08 17:32:53;;;;;;;2.72;1.20;;;26.70;66.50;;;;;;11996569;28;20423;-54
2021/08/08 17:38:40;;;;;;;4.68;1.30;;;26.70;66.10;;;;;;11996326;28;20048;-55
2021/08/08 17:44:28;;;;;;;2.13;0.90;;;26.20;65.00;;;;;;11996239;28;20045;-53
2021/08/08 17:50:16;;;;;;;2.50;1.20;;;25.40;64.80;;;;;;11992891;28;20091;-57
2021/08/08 17:56:04;;;;;;;4.05;1.02;;;25.10;66.10;;;;;;11992897;22;20457;-77
2021/08/08 18:01:53;;;;;;;6.45;1.25;;;24.80;67.10;;;;;;11979582;28;20080;-77
2021/08/08 18:07:40;;;;;;;3.15;1.27;;;24.60;69.00;;;;;;11986301;28;20052;-77
2021/08/08 18:13:27;;;;;;;3.55;1.15;;;24.30;70.70;;;;;;11990203;28;20500;-76
2021/08/08 18:19:15;;;;;;;6.88;1.20;;;24.10;73.00;;;;;;11987721;28;20045;-77
2021/08/08 18:25:02;;;;;;;4.57;1.20;;;23.90;74.90;;;;;;11985783;28;20105;-76
2021/08/08 18:30:49;;;;;;;4.68;1.25;;;23.40;76.40;;;;;;11982227;28;20049;-76
2021/08/08 18:36:38;;;;;;;5.28;1.38;;;23.30;77.50;;;;;;11984670;28;20683;-77
2021/08/08 18:42:25;;;;;;;4.20;1.70;;;23.20;78.60;;;;;;11984292;28;20057;-76
2021/08/08 18:48:12;;;;;;;4.40;1.42;;;23.00;79.10;;;;;;11984146;28;20497;-78
2021/08/08 18:54:00;;;;;;;6.30;1.98;;;22.90;80.70;;;;;;11965581;28;20061;-78
2021/08/08 18:59:47;;;;;;;5.03;2.10;;;22.80;81.60;;;;;;11951031;28;21467;-78
2021/08/08 19:05:36;;;;;;;6.53;1.42;;;22.70;84.40;;;;;;11949019;28;20064;-78
2021/08/08 19:11:24;;;;;;;6.68;1.60;;;22.50;83.70;;;;;;11956397;28;20088;-78
2021/08/08 19:17:11;;;;;;;11.98;5.72;;;22.40;83.20;;;;;;11956042;28;20103;-78
2021/08/08 19:22:58;;;;;;;8.90;2.72;;;22.20;83.00;;;;;;11956795;28;20061;-78
2021/08/08 19:28:46;;;;;;;8.07;2.10;;;22.10;83.70;;;;;;11958314;28;20057;-77
2021/08/08 19:34:36;;;;;;;3.20;1.30;;;22.10;84.50;;;;;;11950086;28;20051;-77
2021/08/08 19:40:23;;;;;;;5.30;1.20;;;22.10;84.60;;;;;;11945495;28;20092;-78
2021/08/08 19:46:11;;;;;;;5.32;1.30;;;22.00;85.10;;;;;;11964680;28;20048;-78
2021/08/08 19:51:58;;;;;;;5.07;1.50;;;22.00;86.00;;;;;;11959889;28;20057;-78
2021/08/08 19:57:45;;;;;;;4.68;1.35;;;21.80;87.10;;;;;;11951166;28;20080;-78
2021/08/08 20:03:33;;;;;;;8.07;1.58;;;21.80;88.10;;;;;;11963187;28;20430;-77
2021/08/08 20:09:21;;;;;;;7.18;1.73;;;21.70;89.30;;;;;;11960766;28;20049;-78
2021/08/08 20:15:09;;;;;;;7.15;1.90;;;21.80;90.10;;;;;;11953614;28;20057;-79
2021/08/08 20:20:57;;;;;;;4.60;1.17;;;21.80;90.90;;;;;;11961971;28;20462;-78
2021/08/08 20:26:44;;;;;;;5.28;1.80;;;21.70;91.40;;;;;;11960644;28;20493;-79
2021/08/08 20:32:31;;;;;;;6.10;1.45;;;21.70;91.50;;;;;;11952292;28;20052;-77
2021/08/08 20:38:19;;;;;;;3.78;1.50;;;21.80;91.80;;;;;;11962555;28;20045;-76
2021/08/08 20:44:06;;;;;;;5.57;1.65;;;21.90;91.90;;;;;;11955191;28;20057;-76
2021/08/08 20:49:53;;;;;;;3.28;1.40;;;21.90;92.30;;;;;;11957152;28;20053;-76
2021/08/08 20:55:41;;;;;;;4.20;1.50;;;21.80;93.00;;;;;;11960560;28;20053;-76
2021/08/08 21:01:29;;;;;;;7.78;1.45;;;21.70;93.30;;;;;;11953866;28;20045;-76
2021/08/08 21:07:16;;;;;;;5.05;1.42;;;21.50;93.80;;;;;;11949134;28;20052;-76
2021/08/08 21:13:06;;;;;;;11.07;1.80;;;21.40;94.20;;;;;;11961195;28;20057;-76
2021/08/08 21:18:55;;;;;;;6.18;2.00;;;21.30;94.40;;;;;;11951175;28;20046;-77
2021/08/08 21:24:42;;;;;;;4.07;1.50;;;21.30;94.70;;;;;;11947284;28;20076;-76
2021/08/08 21:30:30;;;;;;;3.80;1.60;;;21.20;94.80;;;;;;11964360;28;20088;-76
2021/08/08 21:36:18;;;;;;;6.78;1.48;;;21.10;95.20;;;;;;11953129;28;20156;-76
2021/08/08 21:42:06;;;;;;;7.45;1.90;;;21.10;95.40;;;;;;11947310;28;20049;-76
2021/08/08 21:47:55;;;;;;;4.18;1.45;;;21.10;95.60;;;;;;11963798;28;20064;-76
2021/08/08 21:53:42;;;;;;;2.40;1.30;;;21.10;95.70;;;;;;11950058;28;20369;-76
2021/08/08 21:59:29;;;;;;;10.57;3.40;;;21.10;95.90;;;;;;11952279;28;20060;-76
2021/08/08 22:05:17;;;;;;;7.00;1.98;;;21.10;96.00;;;;;;11946551;28;20052;-76
2021/08/08 22:11:04;;;;;;;9.18;3.22;;;21.10;96.40;;;;;;11957793;28;20091;-76
2021/08/08 22:16:51;;;;;;;8.85;2.63;;;21.10;96.60;;;;;;11952641;28;20053;-76
2021/08/08 22:22:39;;;;;;;5.25;1.73;;;21.10;96.80;;;;;;11950992;28;20044;-78
2021/08/08 22:28:26;;;;;;;7.25;2.85;;;21.10;97.00;;;;;;11959858;28;20056;-78
2021/08/08 22:34:13;;;;;;;6.82;1.60;;;21.10;96.80;;;;;;11958727;28;20041;-78
2021/08/08 22:40:01;;;;;;;7.68;2.10;;;21.10;97.00;;;;;;11939274;28;20062;-78
2021/08/08 22:45:49;;;;;;;8.20;2.20;;;21.10;97.20;;;;;;11955573;28;20106;-79
2021/08/08 22:51:36;;;;;;;8.40;2.53;;;21.00;97.40;;;;;;11955274;28;20049;-79
2021/08/08 22:57:24;;;;;;;6.57;2.33;;;21.00;97.60;;;;;;11948149;28;20060;-78
2021/08/08 23:03:11;;;;;;;8.38;4.25;;;20.90;97.60;;;;;;11956670;28;20752;-78
2021/08/08 23:08:59;;;;;;;7.43;2.20;;;20.90;97.80;;;;;;11953890;28;20522;-78
2021/08/08 23:14:47;;;;;;;6.88;2.50;;;21.00;97.90;;;;;;11949558;28;20045;-78
2021/08/08 23:20:34;;;;;;;6.25;2.10;;;20.90;97.80;;;;;;11960132;28;20508;-78
2021/08/08 23:26:21;;;;;;;4.93;1.50;;;20.80;97.70;;;;;;11958927;28;20058;-78
2021/08/08 23:32:10;;;;;;;7.70;1.92;;;20.80;97.70;;;;;;11957405;28;20042;-78
2021/08/08 23:37:57;;;;;;;3.53;1.70;;;20.70;97.90;;;;;;11965863;28;20052;-78
2021/08/08 23:43:44;;;;;;;9.90;5.38;;;20.60;97.70;;;;;;11954773;28;20042;-78
2021/08/08 23:49:32;;;;;;;14.43;7.28;;;20.50;98.10;;;;;;11966068;28;20045;-79
2021/08/08 23:55:19;;;;;;;4.93;1.77;;;20.50;97.80;;;;;;11965782;28;20064;-78
